Kosrae, Federated States of Micronesia
Current Conditions -  °F | °C
As of 2:50 PM on Friday 31 Oct 2014 (Local Time) from PTTP Reporting Station
Overcast Overcast  
Wind Chill: 85°   Ceiling: 30000
Heat Index: 94°   Visibility: 15mi
Dew Point: 76°   Wind: 3mph
Humidity: 75%   Direction: 240°WSW
Pressure: 29.78"   Gusts: NA
Location:  5.33°N, 163.03°E
Report Text: PTTP 310450Z 24003KT 15SM SCT018 OVC300 29/25 A2978 RMK SLP083 T02930245
Loading
Personal Weather Stations






























Interactive Weather Map
Tropical Storm Tracking
New forecast layout! Learn more

10-Day Weather Forecast

Advertisements
Track Severe Weather on mobile